KMNN/MNN METAR and TAF weather

Enter ICAO airport designator
Station Type Date Time Source
KMNN METAR 2019/10/20 18:53 UTC NOAA

KMNN 201853Z AUTO 28006KT 5SM HZ CLR 22/08 A2989 RMK AO2 SLP120 T02220083


Station Type Date Time Source
KMNN Decoded METAR 2019/10/20 18:53 UTC NOAA

MARION MUNICIPAL AIRPORT, OH, United States (KMNN) 40-37N 83-04W 301M
Oct 20, 2019 - 02:53 PM EDT / 2019.10.20 1853 UTC
Wind: from the W (280 degrees) at 7 MPH (6 KT):0
Visibility: 5 mile(s):0
Sky conditions: clear
Weather: haze
Temperature: 72.0 F (22.2 C)
Dew Point: 46.9 F (8.3 C)
Relative Humidity: 40%
Pressure (altimeter): 29.89 in. Hg (1012 hPa)
ob: KMNN 201853Z AUTO 28006KT 5SM HZ CLR 22/08 A2989 RMK AO2 SLP120 T02220083
cycle: 19

Station Type Date Time Source
KMNN TAF UTC NOAA

Error!

Example: see airport list